Flight Track Log - Related Links

Times and Time Zones

All times are in EDT time to prevent confusion due to time zone crossing. See the UAL33 flight status page for this flight to view local times or setup timezone preferences in your user account.


Time Position Orientation Groundspeed Altitude Reporting Facility
EDT Latitude Longitude Course Direction KTS MPH feet Rate Location/Type
Thu 06:13:22 PM 29.9649 -95.3440 165° South 169 194 1,000  Level FlightAware ADS-B
Thu 06:13:33 PM 29.9570 -95.3423 169° South 165 190 1,600 3,529 Climbing FlightAware ADS-B
Thu 06:13:39 PM 29.9526 -95.3434 192° South 165 190 2,000 3,818 Climbing FlightAware ADS-B
Thu 06:13:44 PM 29.9491 -95.3456 209° Southwest 165 190 2,300 3,600 Climbing FlightAware ADS-B
Thu 06:13:49 PM 29.9463 -95.3487 224° Southwest 168 193 2,600 2,667 Climbing FlightAware ADS-B
Thu 06:13:53 PM 29.9444 -95.3514 231° Southwest 170 196 2,700 1,636 Climbing FlightAware ADS-B
Thu 06:14:00 PM 29.9421 -95.3579 248° West 182 209 2,900 1,800 Climbing FlightAware ADS-B
Thu 06:14:03 PM 29.9417 -95.3608 261° West 186 214 3,000 2,000 Climbing FlightAware ADS-B
Thu 06:14:06 PM 29.9417 -95.3641 270° West 191 220 3,100 1,714 Climbing FlightAware ADS-B
Thu 06:14:10 PM 29.9421 -95.3681 277° West 196 226 3,200 1,846 Climbing FlightAware ADS-B
Thu 06:14:19 PM 29.9455 -95.3771 294° West 207 238 3,500 1,875 Climbing FlightAware ADS-B
Thu 06:14:26 PM 29.9498 -95.3831 312° West 228 262 3,700 1,200 Climbing FlightAware ADS-B
Thu 06:14:29 PM 29.9524 -95.3858 318° Northwest 235 270 3,700 857 Level FlightAware ADS-B
Thu 06:14:33 PM 29.9562 -95.3885 328° Northwest 243 280 3,800 1,500 Climbing FlightAware ADS-B
Thu 06:14:37 PM 29.9607 -95.3909 335° Northwest 251 289 3,900 1,091 Climbing FlightAware ADS-B
Thu 06:14:44 PM 29.9685 -95.3933 347° North 267 307 4,000 113 Climbing FlightAware ADS-B
Thu 06:15:30 PM 30.0282 -95.3909 North 276 318 4,000  Level FlightAware ADS-B
Thu 06:15:46 PM 30.0484 -95.3893 North 275 316 4,000  Level FlightAware ADS-B
Thu 06:16:17 PM 30.0869 -95.3865 North 275 316 4,000 146 Level FlightAware ADS-B
Thu 06:16:27 PM 30.1007 -95.3854 North 277 319 4,100 1,440 Climbing FlightAware ADS-B
Thu 06:16:42 PM 30.1199 -95.3839 North 277 319 4,600 3,368 Climbing FlightAware ADS-B
Thu 06:17:24 PM 30.1740 -95.3792 North 283 326 7,300 3,871 Climbing FlightAware ADS-B
Thu 06:17:44 PM 30.1986 -95.3695 26° Northeast 284 327 8,600 3,840 Climbing FlightAware ADS-B
Thu 06:17:49 PM 30.2045 -95.3654 31° Northeast 285 328 8,900 2,743 Climbing FlightAware ADS-B
Thu 06:18:54 PM 30.2784 -95.3036 36° Northeast 338 389 11,800 2,804 Climbing FlightAware ADS-B
Thu 06:19:21 PM 30.3132 -95.2744 36° Northeast 348 400 13,200 3,158 Climbing FlightAware ADS-B
Thu 06:19:51 PM 30.3540 -95.2405 36° Northeast 357 411 14,800 3,049 Climbing FlightAware ADS-B
Thu 06:20:22 PM 30.3959 -95.2056 36° Northeast 367 422 16,300 2,727 Climbing FlightAware ADS-B
Thu 06:21:08 PM 30.4619 -95.1538 32° Northeast 383 441 18,300 2,100 Climbing FlightAware ADS-B
Thu 06:22:42 PM 30.6180 -95.0566 28° Northeast 432 497 21,200 1,984 Climbing FlightAware ADS-B
Thu 06:23:12 PM 30.6715 -95.0238 28° Northeast 438 504 22,400 2,333 Climbing FlightAware ADS-B
Thu 06:24:12 PM 30.7805 -94.9556 28° Northeast 443 510 24,700 2,244 Climbing FlightAware ADS-B
Thu 06:25:15 PM 30.8944 -94.8844 28° Northeast 447 514 27,000 1,751 Climbing FlightAware ADS-B
Thu 06:27:17 PM 31.1240 -94.7407 28° Northeast 470 541 30,100 1,461 Climbing FlightAware ADS-B
Thu 06:27:47 PM 31.1808 -94.7052 28° Northeast 476 548 30,700 1,200 Climbing FlightAware ADS-B
Thu 06:28:17 PM 31.2386 -94.6656 30° Northeast 482 555 31,300 1,300 Climbing FlightAware ADS-B
Thu 06:28:47 PM 31.2966 -94.6246 31° Northeast 488 562 32,000 1,475 Climbing FlightAware ADS-B
Thu 06:29:18 PM 31.3563 -94.5826 31° Northeast 488 562 32,800 1,176 Climbing FlightAware ADS-B
Thu 06:33:02 PM 31.7852 -94.2845 31° Northeast 482 555 37,000 906 Climbing FlightAware ADS-B
Thu 06:33:56 PM 31.8881 -94.2125 31° Northeast 480 552 37,000  Level FlightAware ADS-B
Thu 06:34:29 PM 31.9501 -94.1689 31° Northeast 480 552 37,000  Level FlightAware ADS-B
Thu 06:35:41 PM 32.0875 -94.0721 31° Northeast 480 552 37,000  Level FlightAware ADS-B
Thu 06:36:17 PM 32.1557 -94.0240 31° Northeast 480 552 37,000 563 Level FlightAware ADS-B
Thu 06:37:17 PM 32.2694 -93.9435 31° Northeast 479 551 37,900 1,032 Climbing FlightAware ADS-B
Thu 06:37:50 PM 32.3320 -93.8984 31° Northeast 477 549 38,600 750 Climbing FlightAware ADS-B
Thu 06:38:45 PM 32.4234 -93.8036 41° Northeast 477 549 39,000 282 Climbing FlightAware ADS-B
Thu 06:39:15 PM 32.4716 -93.7504 43° Northeast 480 552 39,000  Level FlightAware ADS-B
Thu 06:39:47 PM 32.5237 -93.6933 43° Northeast 479 551 39,000  Level FlightAware ADS-B
Thu 06:41:44 PM 32.7144 -93.4841 43° Northeast 480 552 39,000  Level FlightAware ADS-B
Thu 06:45:52 PM 33.0860 -93.0090 47° Northeast 478 550 39,000  Level FlightAware ADS-B
Thu 06:46:47 PM 33.1640 -92.9160 45° Northeast 477 549 39,000  Level FlightAware ADS-B
Thu 06:47:23 PM 33.2120 -92.8590 45° Northeast 477 549 39,000  Level FlightAware ADS-B
Thu 06:48:24 PM 33.2930 -92.7620 45° Northeast 477 549 39,000  Level FlightAware ADS-B
Thu 06:49:12 PM 33.3560 -92.6860 45° Northeast 477 549 39,000  Level FlightAware ADS-B
Thu 06:49:48 PM 33.4040 -92.6290 45° Northeast 477 549 39,000  Level FlightAware ADS-B
Thu 06:50:25 PM 33.4530 -92.5700 45° Northeast 477 549 39,000  Level FlightAware ADS-B
Thu 06:51:13 PM 33.5170 -92.4940 45° Northeast 477 549 39,000  Level FlightAware ADS-B
Thu 06:51:49 PM 33.5650 -92.4360 45° Northeast 477 549 39,000  Level FlightAware ADS-B
Thu 06:52:37 PM 33.6280 -92.3600 45° Northeast 477 549 39,000  Level FlightAware ADS-B
Thu 06:53:11 PM 33.6730 -92.3060 45° Northeast 477 549 39,000  Level FlightAware ADS-B
Thu 06:53:59 PM 33.7370 -92.2290 45° Northeast 477 549 39,000  Level FlightAware ADS-B
Thu 06:54:36 PM 33.7860 -92.1700 45° Northeast 477 549 39,000  Level FlightAware ADS-B
Thu 06:55:24 PM 33.8500 -92.0940 45° Northeast 477 549 39,000  Level FlightAware ADS-B
Thu 06:56:13 PM 33.9150 -92.0150 45° Northeast 477 549 39,000 1,071 Level FlightAware ADS-B
Thu 06:57:16 PM 34.2911 -92.0092 45° Northeast 466 536 41,000 294 Climbing Kansas City Center
Thu 07:03:01 PM 35.0410 -91.8390 45° Northeast 476 548 41,000  Level FlightAware ADS-B
Thu 07:03:54 PM 35.1480 -91.8150 10° North 476 548 41,000  Level FlightAware ADS-B
Thu 07:04:29 PM 35.2330 -91.7950 11° North 472 543 41,000  Level FlightAware ADS-B
Thu 07:05:30 PM 35.3520 -91.7690 10° North 471 542 41,000  Level FlightAware ADS-B
Thu 07:06:27 PM 35.4780 -91.7400 11° North 473 544 41,000  Level FlightAware ADS-B
Thu 07:07:11 PM 35.5820 -91.7150 11° North 472 543 41,000  Level FlightAware ADS-B
Thu 07:07:47 PM 35.6560 -91.6990 10° North 475 547 41,000  Level FlightAware ADS-B
Thu 07:08:33 PM 35.7600 -91.6740 11° North 474 545 41,000  Level FlightAware ADS-B
Thu 07:09:17 PM 35.8510 -91.6540 10° North 470 541 41,000  Level FlightAware ADS-B
Thu 07:10:01 PM 35.9490 -91.6310 11° North 466 536 41,000  Level FlightAware ADS-B
Thu 07:10:41 PM 36.0320 -91.6120 10° North 466 536 41,000  Level FlightAware ADS-B
Thu 07:11:31 PM 36.1390 -91.5870 11° North 465 535 41,000  Level FlightAware ADS-B
Thu 07:12:16 PM 36.2310 -91.5650 11° North 463 533 41,000  Level FlightAware ADS-B
Thu 07:12:55 PM 36.3140 -91.5460 10° North 461 531 41,000  Level FlightAware ADS-B
Thu 07:13:29 PM 36.3860 -91.5290 11° North 456 525 41,000  Level FlightAware ADS-B
Thu 07:14:09 PM 36.4680 -91.5100 11° North 455 524 41,000  Level FlightAware ADS-B
Thu 07:14:53 PM 36.5610 -91.4880 11° North 455 524 41,000  Level FlightAware ADS-B
Thu 07:15:31 PM 36.6390 -91.4700 10° North 459 528 41,000  Level FlightAware ADS-B
Thu 07:16:13 PM 36.7280 -91.4490 11° North 461 531 41,000  Level FlightAware ADS-B
Thu 07:16:53 PM 36.8110 -91.4290 11° North 458 527 41,000  Level FlightAware ADS-B
Thu 07:17:37 PM 36.9010 -91.4080 11° North 458 527 41,000  Level FlightAware ADS-B
Thu 07:18:18 PM 36.9870 -91.3870 11° North 460 529 41,000  Level FlightAware ADS-B
Thu 07:18:58 PM 37.0700 -91.3670 11° North 453 521 41,000  Level FlightAware ADS-B
Thu 07:19:43 PM 37.1620 -91.3450 11° North 443 510 41,000  Level FlightAware ADS-B
Thu 07:20:14 PM 37.2250 -91.3300 11° North 442 509 41,000  Level FlightAware ADS-B
Thu 07:21:00 PM 37.3180 -91.3080 11° North 443 510 41,000  Level FlightAware ADS-B
Thu 07:21:40 PM 37.3970 -91.2890 11° North 443 510 41,000  Level FlightAware ADS-B
Thu 07:22:19 PM 37.4720 -91.2710 11° North 442 509 41,000  Level FlightAware ADS-B
Thu 07:23:04 PM 37.5530 -91.2530 10° North 440 506 41,000  Level FlightAware ADS-B
Thu 07:24:01 PM 37.6730 -91.2230 11° North 436 502 41,000  Level FlightAware ADS-B
Thu 07:24:38 PM 37.7520 -91.2030 11° North 434 499 41,000  Level FlightAware ADS-B
Thu 07:25:24 PM 37.8420 -91.1810 11° North 433 498 41,000  Level FlightAware ADS-B
Thu 07:26:06 PM 37.9240 -91.1610 11° North 432 497 41,000  Level FlightAware ADS-B
Thu 07:26:48 PM 38.0040 -91.1420 11° North 434 499 41,000  Level FlightAware ADS-B
Thu 07:27:30 PM 38.0800 -91.1240 11° North 433 498 41,000  Level FlightAware ADS-B
Thu 07:28:14 PM 38.1690 -91.1020 11° North 434 499 41,000  Level FlightAware ADS-B
Thu 07:29:10 PM 38.2750 -91.0750 11° North 433 498 41,000  Level FlightAware ADS-B
Thu 07:29:43 PM 38.3520 -91.0560 11° North 434 499 41,000  Level FlightAware ADS-B
Thu 07:30:27 PM 38.4320 -91.0370 11° North 434 499 41,000  Level FlightAware ADS-B
Thu 07:31:15 PM 38.5120 -91.0190 10° North 434 499 41,000  Level FlightAware ADS-B
Thu 07:32:00 PM 38.6150 -90.9910 12° North 434 499 41,000  Level FlightAware ADS-B
Thu 07:32:39 PM 38.7000 -90.9660 13° North 438 504 41,000  Level FlightAware ADS-B
Thu 07:33:20 PM 38.7720 -90.9360 18° North 438 504 41,000  Level FlightAware ADS-B
Thu 07:34:18 PM 38.8860 -90.8670 25° Northeast 442 509 41,000  Level FlightAware ADS-B
Thu 07:35:08 PM 38.9710 -90.8210 23° Northeast 440 506 41,000  Level FlightAware ADS-B
Thu 07:35:55 PM 39.0680 -90.7690 23° Northeast 440 506 41,000  Level FlightAware ADS-B
Thu 07:36:31 PM 39.1360 -90.7310 23° Northeast 440 506 41,000 -228 Level FlightAware ADS-B
Thu 07:37:14 PM 39.2130 -90.6890 23° Northeast 441 507 40,700 -1,024 Descending FlightAware ADS-B
Thu 07:37:53 PM 39.2890 -90.6470 23° Northeast 445 512 39,600 -1,636 Descending FlightAware ADS-B
Thu 07:38:31 PM 39.3620 -90.6070 23° Northeast 448 516 38,600 -1,750 Descending FlightAware ADS-B
Thu 07:39:05 PM 39.4260 -90.5720 23° Northeast 457 526 37,500 -988 Descending FlightAware ADS-B
Thu 07:39:56 PM 39.5140 -90.5260 22° Northeast 456 525 37,200 -1,310 Descending FlightAware ADS-B
Thu 07:40:32 PM 39.5950 -90.4790 24° Northeast 452 520 35,600 -1,976 Descending FlightAware ADS-B
Thu 07:41:18 PM 39.6840 -90.4290 23° Northeast 450 518 34,500 -1,432 Descending FlightAware ADS-B
Thu 07:42:00 PM 39.7640 -90.3840 23° Northeast 449 517 33,500 -1,139 Descending FlightAware ADS-B
Thu 07:42:37 PM 39.8310 -90.3470 23° Northeast 449 517 33,000 -353 Descending FlightAware ADS-B
Thu 07:43:25 PM 39.9250 -90.2940 23° Northeast 451 519 33,000  Level FlightAware ADS-B
Thu 07:44:02 PM 39.9970 -90.2540 23° Northeast 453 521 33,000  Level FlightAware ADS-B
Thu 07:44:42 PM 40.0750 -90.2100 23° Northeast 455 524 33,000  Level FlightAware ADS-B
Thu 07:45:28 PM 40.1640 -90.1600 23° Northeast 456 525 33,000  Level FlightAware ADS-B
Thu 07:46:10 PM 40.2440 -90.1150 23° Northeast 458 527 33,000  Level FlightAware ADS-B
Thu 07:46:54 PM 40.3320 -90.0640 24° Northeast 461 531 33,000  Level FlightAware ADS-B
Thu 07:47:35 PM 40.4100 -90.0200 23° Northeast 463 533 33,000  Level FlightAware ADS-B
Thu 07:48:16 PM 40.4930 -89.9730 23° Northeast 464 534 33,000  Level FlightAware ADS-B
Thu 07:48:58 PM 40.5760 -89.9260 23° Northeast 458 527 33,000 -276 Level FlightAware ADS-B
Thu 07:49:43 PM 40.6590 -89.8780 24° Northeast 426 490 32,600 -1,000 Descending FlightAware ADS-B
Thu 07:50:16 PM 40.7190 -89.8440 23° Northeast 418 481 31,700 -1,692 Descending FlightAware ADS-B
Thu 07:51:01 PM 40.7970 -89.7990 24° Northeast 410 472 30,400 -1,765 Descending FlightAware ADS-B
Thu 07:51:41 PM 40.8660 -89.7590 24° Northeast 406 467 29,200 -1,692 Descending FlightAware ADS-B
Thu 07:52:19 PM 40.9300 -89.7210 24° Northeast 404 465 28,200 -1,683 Descending FlightAware ADS-B
Thu 07:53:03 PM 41.0060 -89.6770 24° Northeast 397 457 26,900 -1,800 Descending FlightAware ADS-B
Thu 07:53:49 PM 41.0820 -89.6330 24° Northeast 391 450 25,500 -1,835 Descending FlightAware ADS-B
Thu 07:54:28 PM 41.1440 -89.5930 26° Northeast 390 449 24,300 -1,920 Descending FlightAware ADS-B
Thu 07:55:04 PM 41.1850 -89.5250 51° Northeast 397 457 23,100 -1,948 Descending FlightAware ADS-B
Thu 07:55:45 PM 41.2220 -89.4350 61° Northeast 392 451 21,800 -1,902 Descending FlightAware ADS-B
Thu 07:56:26 PM 41.2560 -89.3500 62° Northeast 386 444 20,500 -1,829 Descending FlightAware ADS-B
Thu 07:57:07 PM 41.2890 -89.2680 62° Northeast 382 440 19,300 -1,926 Descending FlightAware ADS-B
Thu 07:57:47 PM 41.3230 -89.1830 62° Northeast 378 435 17,900 -2,000 Descending FlightAware ADS-B
Thu 07:58:28 PM 41.3570 -89.0990 62° Northeast 373 429 16,600 -1,829 Descending FlightAware ADS-B
Thu 07:59:09 PM 41.3890 -89.0190 62° Northeast 365 420 15,400 -1,350 Descending FlightAware ADS-B
Thu 07:59:48 PM 41.4200 -88.9420 62° Northeast 342 394 14,800 -578 Descending FlightAware ADS-B
Thu 08:00:32 PM 41.4500 -88.8640 63° Northeast 310 357 14,600 -907 Descending FlightAware ADS-B
Thu 08:01:14 PM 41.4780 -88.7960 61° Northeast 296 341 13,500 -1,744 Descending FlightAware ADS-B
Thu 08:01:58 PM 41.5060 -88.7250 62° Northeast 287 330 12,100 -1,737 Descending FlightAware ADS-B
Thu 08:02:30 PM 41.5250 -88.6750 63° Northeast 286 329 11,300 -1,026 Descending FlightAware ADS-B
Thu 08:03:14 PM 41.5520 -88.6070 62° Northeast 285 328 10,800 -353 Descending FlightAware ADS-B
Thu 08:03:55 PM 41.5770 -88.5450 62° Northeast 283 326 10,800 -390 Level FlightAware ADS-B
Thu 08:04:31 PM 41.6110 -88.5040 42° Northeast 278 320 10,300 -952 Descending FlightAware ADS-B
Thu 08:04:58 PM 41.6390 -88.4740 39° Northeast 275 316 9,800 -1,116 Descending FlightAware ADS-B
Thu 08:05:14 PM 41.6550 -88.4570 38° Northeast 273 314 9,500 -1,227 Descending FlightAware ADS-B
Thu 08:05:42 PM 41.6840 -88.4270 38° Northeast 271 312 8,900 -878 Descending FlightAware ADS-B
Thu 08:05:55 PM 41.6960 -88.4140 39° Northeast 272 313 8,900 -150 Level FlightAware ADS-B
Thu 08:06:22 PM 41.7220 -88.3860 39° Northeast 255 293 8,800  Descending FlightAware ADS-B
Thu 08:06:52 PM 41.7470 -88.3590 39° Northeast 228 262 8,900  Climbing FlightAware ADS-B
Thu 08:07:20 PM 41.7700 -88.3380 34° Northeast 200 230 8,800 -176 Descending FlightAware ADS-B
Thu 08:07:26 PM 41.7750 -88.3370 North 194 223 8,800 214 Level FlightAware ADS-B
Thu 08:07:48 PM 41.7920 -88.3430 345° North 195 224 8,900 125 Climbing FlightAware ADS-B
Thu 08:08:14 PM 41.8140 -88.3580 333° Northwest 195 224 8,900 -429 Level FlightAware ADS-B
Thu 08:08:44 PM 41.8390 -88.3760 332° Northwest 195 224 8,500 -714 Descending FlightAware ADS-B
Thu 08:08:56 PM 41.8470 -88.3840 323° Northwest 196 226 8,400 -947 Descending FlightAware ADS-B
Thu 08:09:22 PM 41.8630 -88.4060 314° West 199 229 7,900 -1,091 Descending FlightAware ADS-B
Thu 08:09:51 PM 41.8820 -88.4310 316° Northwest 201 231 7,400 -1,171 Descending FlightAware ADS-B
Thu 08:10:03 PM 41.8940 -88.4360 343° North 196 226 7,100 -1,116 Descending FlightAware ADS-B
Thu 08:10:34 PM 41.9170 -88.4220 24° Northeast 191 220 6,600 -1,034 Descending FlightAware ADS-B
Thu 08:11:01 PM 41.9300 -88.3930 59° Northeast 194 223 6,100 -1,111 Descending FlightAware ADS-B
Thu 08:11:28 PM 41.9420 -88.3670 58° Northeast 195 224 5,600 -1,116 Descending FlightAware ADS-B
Thu 08:11:44 PM 41.9490 -88.3500 61° Northeast 196 226 5,300 -1,050 Descending FlightAware ADS-B
Thu 08:12:08 PM 41.9620 -88.3220 58° Northeast 196 226 4,900 -667 Descending FlightAware ADS-B
Thu 08:12:20 PM 41.9660 -88.3090 68° East 197 227 4,900 -250 Level FlightAware ADS-B
Thu 08:12:32 PM 41.9680 -88.2940 80° East 200 230 4,800  Descending FlightAware ADS-B
Thu 08:13:00 PM 41.9680 -88.2590 90° East 204 235 4,900  Climbing FlightAware ADS-B
Thu 08:13:28 PM 41.9680 -88.2250 90° East 203 234 4,800 -533 Descending FlightAware ADS-B
Thu 08:13:45 PM 41.9680 -88.2030 90° East 207 238 4,500 -1,263 Descending FlightAware ADS-B
Thu 08:14:06 PM 41.9680 -88.1750 90° East 207 238 4,000 -1,250 Descending FlightAware ADS-B
Thu 08:14:33 PM 41.9680 -88.1420 90° East 199 229 3,500 -1,091 Descending FlightAware ADS-B
Thu 08:15:01 PM 41.9680 -88.1080 90° East 189 217 3,000 -1,038 Descending FlightAware ADS-B
Thu 08:15:25 PM 41.9690 -88.0800 87° East 178 205 2,600 -878 Descending FlightAware ADS-B
Thu 08:15:42 PM 41.9690 -88.0630 90° East 173 199 2,400 -800 Descending FlightAware ADS-B
Thu 08:16:10 PM 41.9690 -88.0350 90° East 148 170 2,000 -750 Descending FlightAware ADS-B
Thu 08:16:30 PM 41.9690 -88.0170 90° East 144 166 1,800 -766 Descending FlightAware ADS-B
Thu 08:16:57 PM 41.9690 -87.9950 90° East 140 161 1,400 -750 Descending FlightAware ADS-B
Thu 08:17:26 PM 41.9690 -87.9680 90° East 141 162 1,100 -737 Descending FlightAware ADS-B
Thu 08:17:54 PM 41.9690 -87.9420 90° East 142 163 700 -486 Descending FlightAware ADS-B
Thu 08:18:40 PM 41.9690 -87.9060 90° East 141 162 500 -261 Descending FlightAware ADS-B
Thu 08:24:54 PM 41.9830 -87.8950 340° North 29 33 -80 Descending FlightAware ADS-B

Login

Don't have an account? Register now (free) for customized features, flight alerts, and more!